Miyamaru No.3 — JPQN — position and weather

sailwx.info

Track history (hours):
 
Tides and Currents Weather Stations Pressure Air Temp Water Temp Dewpoint Dewpoint Depression Visibility Wind Speed Wind Dir Waves Ship Positions

Miyamaru No.3

Last reported at 2018-Feb-20 18:29 UTC. Time now 2018-Feb-20 19:45 UTC.
Position N 34°57' E 139°28'.

Length 105 m; draft 6.8 m.

Type: Tanker. MMSI: 431036000.

Date/timePositionNaut miles runAvg speedWind from/ knotsBaromVisibWave heightAir tempDewpointWater temp
2018-Feb-20 18:29N 34°57' E 139°28'611.3
2018-Feb-20 17:58N 35°01' E 139°34'511.2
2018-Feb-20 17:30N 35°04' E 139°39'611.7
2018-Feb-20 17:00N 35°08' E 139°44'611.9
2018-Feb-20 16:30N 35°14' E 139°46'611.6
2018-Feb-20 16:00N 35°19' E 139°43'611.0
2018-Feb-20 15:30N 35°25' E 139°43'611.3
2018-Feb-20 15:00N 35°28' E 139°49'611.3
2018-Feb-20 14:30N 35°31' E 139°55'611.1
2018-Feb-20 14:00N 35°32' E 140°01'2 3.3
2018-Feb-20 13:30N 35°32' E 140°03'0 0.0
2018-Feb-20 13:00N 35°32' E 140°03'0 0.0
2018-Feb-20 12:30N 35°32' E 140°03'0 0.0
2018-Feb-20 12:00N 35°32' E 140°03'0 0.0
2018-Feb-20 11:30N 35°32' E 140°03'0 0.0
2018-Feb-20 11:00N 35°32' E 140°03'0 0.0
2018-Feb-20 10:30N 35°32' E 140°03'0 0.0
2018-Feb-20 10:00N 35°32' E 140°03'0 0.0
2018-Feb-20 09:30N 35°32' E 140°03'0 0.0
2018-Feb-20 09:00N 35°32' E 140°03'0 0.0
2018-Feb-20 08:30N 35°32' E 140°03'0 0.0
2018-Feb-20 08:00N 35°32' E 140°03'0 0.7
2018-Feb-20 07:30N 35°32' E 140°03'4 7.9
2018-Feb-20 07:00N 35°32' E 139°58'611.6
2018-Feb-20 06:30N 35°29' E 139°52'612.1
2018-Feb-20 06:00N 35°25' E 139°47'612.0
2018-Feb-20 05:30N 35°19' E 139°44'611.2
2018-Feb-20 05:00N 35°14' E 139°47'611.3
2018-Feb-20 04:30N 35°08' E 139°46'611.2
2018-Feb-20 04:00N 35°04' E 139°42'611.2
2018-Feb-20 03:30N 35°00' E 139°37'611.5
2018-Feb-20 02:59N 34°57' E 139°31'611.6
2018-Feb-20 02:29N 34°53' E 139°25'611.3
2018-Feb-20 01:58N 34°49' E 139°20'611.8
2018-Feb-20 01:28N 34°45' E 139°14'611.9
2018-Feb-20 00:57N 34°41' E 139°09'510.5
2018-Feb-20 00:29N 34°38' E 139°04'510.1
2018-Feb-19 23:58N 34°34' E 138°60'4 9.4
2018-Feb-19 23:29N 34°33' E 138°54'610.9
2018-Feb-19 22:58N 34°33' E 138°48'511.7
2018-Feb-19 22:30N 34°33' E 138°41'611.8
2018-Feb-19 22:00N 34°33' E 138°34'712.1
2018-Feb-19 21:25N 34°32' E 138°25'712.3
2018-Feb-19 20:52N 34°32' E 138°17'712.7
2018-Feb-19 20:18N 34°32' E 138°08'3712.4
2018-Feb-19 17:21N 34°32' E 137°24'512.5
2018-Feb-19 16:58N 34°32' E 137°18'1312.5
2018-Feb-19 15:54N 34°32' E 137°02'813.1
2018-Feb-19 15:19N 34°37' E 136°55'412.8
2018-Feb-19 15:00N 34°40' E 136°51'712.7
2018-Feb-19 14:29N 34°45' E 136°47'612.6
2018-Feb-19 14:00N 34°51' E 136°44'612.3
2018-Feb-19 13:30N 34°56' E 136°41'2 4.8
2018-Feb-19 13:00N 34°58' E 136°39'0 0.0
2018-Feb-19 12:30N 34°58' E 136°39'0 0.0
2018-Feb-19 11:59N 34°58' E 136°39'0 0.0
2018-Feb-19 11:23N 34°58' E 136°39'0 0.0
2018-Feb-19 10:59N 34°58' E 136°39'0 0.0
2018-Feb-19 10:29N 34°58' E 136°39'0 0.0
2018-Feb-19 09:59N 34°58' E 136°39'0 0.0
2018-Feb-19 09:29N 34°58' E 136°39'0 0.0
2018-Feb-19 08:59N 34°58' E 136°39'0 0.0
2018-Feb-19 08:23N 34°58' E 136°39'0 0.2
2018-Feb-19 07:59N 34°58' E 136°39'2 3.5
2018-Feb-19 07:30N 34°57' E 136°40'510.4
2018-Feb-19 07:00N 34°52' E 136°42'611.4
2018-Feb-19 06:30N 34°47' E 136°45'611.2
2018-Feb-19 06:00N 34°42' E 136°50'6210.2
2018-Feb-18 23:58N 34°32' E 138°03'6 9.9
2018-Feb-18 23:21N 34°32' E 138°11'4 9.6
2018-Feb-18 22:59N 34°32' E 138°15'510.5
2018-Feb-18 22:30N 34°32' E 138°21'1011.0
2018-Feb-18 21:36N 34°32' E 138°33'110.6
2018-Feb-18 21:28N 34°33' E 138°35'1310.7
2018-Feb-18 20:14N 34°33' E 138°51'210.9
2018-Feb-18 20:00N 34°33' E 138°54'710.4
2018-Feb-18 19:22N 34°36' E 139°01'411.8
2018-Feb-18 19:00N 34°39' E 139°05'811.0
2018-Feb-18 18:16N 34°45' E 139°12'310.0
2018-Feb-18 17:56N 34°47' E 139°15'6 9.8
2018-Feb-18 17:22N 34°51' E 139°20'10 9.8
2018-Feb-18 16:22N 34°57' E 139°28'410.4
2018-Feb-18 15:58N 34°60' E 139°32'510.6
2018-Feb-18 15:30N 35°03' E 139°37'611.4
2018-Feb-18 14:58N 35°07' E 139°43'611.7
2018-Feb-18 14:29N 35°12' E 139°46'511.4
2018-Feb-18 14:01N 35°17' E 139°45'611.6
2018-Feb-18 13:31N 35°23' E 139°42'611.2
2018-Feb-18 13:01N 35°27' E 139°47'611.8
2018-Feb-18 12:30N 35°30' E 139°53'611.3
2018-Feb-18 12:00N 35°32' E 139°60'3 6.2
2018-Feb-18 11:30N 35°32' E 140°03'0 0.2
2018-Feb-18 11:00N 35°32' E 140°03'0 0.0
2018-Feb-18 01:48N 35°32' E 140°03'0 0.7
2018-Feb-18 01:31N 35°32' E 140°03'1 2.9
2018-Feb-18 01:00N 35°33' E 140°02'0 0.2
2018-Feb-18 00:27N 35°33' E 140°02'0 0.0
2018-Feb-17 23:57N 35°33' E 140°02'0 0.0
2018-Feb-17 23:27N 35°33' E 140°02'0 0.0
2018-Feb-17 22:57N 35°33' E 140°02'0 0.0
2018-Feb-17 22:27N 35°33' E 140°02'0 0.0
2018-Feb-17 21:57N 35°33' E 140°02'0 0.0
2018-Feb-17 21:27N 35°33' E 140°02'0 0.0
2018-Feb-17 20:57N 35°33' E 140°02'0 0.0
2018-Feb-17 20:27N 35°33' E 140°02'0 0.0
2018-Feb-17 19:51N 35°33' E 140°02'0 0.0
2018-Feb-17 19:27N 35°33' E 140°02'0 0.0
2018-Feb-17 18:57N 35°33' E 140°02'0 0.0
2018-Feb-17 18:27N 35°33' E 140°02'0 0.0
2018-Feb-17 18:00N 35°33' E 140°02'0 0.0
2018-Feb-17 17:30N 35°33' E 140°02'0 0.0
2018-Feb-17 16:57N 35°33' E 140°02'0 0.0
2018-Feb-17 16:27N 35°33' E 140°02'0 0.0
2018-Feb-17 15:57N 35°33' E 140°02'0 0.0
2018-Feb-17 15:27N 35°33' E 140°02'0 0.0
2018-Feb-17 14:57N 35°33' E 140°02'0 0.0
2018-Feb-17 14:27N 35°33' E 140°02'0 0.0
2018-Feb-17 13:57N 35°33' E 140°02'0 0.0
2018-Feb-17 13:30N 35°33' E 140°02'0 0.0
2018-Feb-17 13:00N 35°33' E 140°02'0 0.0
2018-Feb-17 12:21N 35°33' E 140°02'0 0.0
2018-Feb-17 11:51N 35°33' E 140°02'0 0.0
2018-Feb-17 11:27N 35°33' E 140°02'0 0.0
2018-Feb-17 10:57N 35°33' E 140°02'0 0.0
2018-Feb-17 10:30N 35°33' E 140°02'0 0.0
2018-Feb-17 09:57N 35°33' E 140°02'0 0.0
2018-Feb-17 09:27N 35°33' E 140°02'0 0.0
2018-Feb-17 08:57N 35°33' E 140°02'0 0.0
2018-Feb-17 08:30N 35°33' E 140°02'0 0.0
2018-Feb-17 07:57N 35°33' E 140°02'0 0.1
2018-Feb-17 07:27N 35°33' E 140°02'1 3.0
2018-Feb-17 07:00N 35°32' E 140°03'0 0.3
2018-Feb-17 06:30N 35°32' E 140°03'0 0.0
2018-Feb-17 05:59N 35°32' E 140°03'0 0.9
2018-Feb-17 05:30N 35°32' E 140°03'1 2.6
2018-Feb-17 05:00N 35°33' E 140°02'2 4.5
2018-Feb-17 04:31N 35°33' E 140°05'0 0.1
2018-Feb-17 03:58N 35°33' E 140°05'0 0.0
2018-Feb-17 03:29N 35°33' E 140°05'0 0.0
2018-Feb-17 03:00N 35°33' E 140°05'0 0.0
2018-Feb-17 02:30N 35°33' E 140°05'0 0.0
2018-Feb-17 02:01N 35°33' E 140°05'0 0.0
2018-Feb-17 01:30N 35°33' E 140°05'0 0.0
2018-Feb-17 01:00N 35°33' E 140°05'0 0.0
2018-Feb-17 00:30N 35°33' E 140°05'0 0.5
2018-Feb-17 00:00N 35°33' E 140°05'2 4.5
2018-Feb-16 23:30N 35°34' E 140°02'0 0.6
2018-Feb-16 23:00N 35°33' E 140°02'0 0.0
2018-Feb-16 22:30N 35°33' E 140°02'0 0.0
2018-Feb-16 22:00N 35°33' E 140°02'0 0.0
2018-Feb-16 21:30N 35°33' E 140°02'0 0.0
2018-Feb-16 21:00N 35°33' E 140°02'0 0.0
2018-Feb-16 20:18N 35°33' E 140°02'0 0.2
2018-Feb-16 20:00N 35°33' E 140°02'0 0.0
2018-Feb-16 19:30N 35°33' E 140°02'0 0.0
2018-Feb-16 19:00N 35°33' E 140°02'0 0.0
2018-Feb-16 18:30N 35°33' E 140°02'0 0.0
2018-Feb-16 18:00N 35°33' E 140°02'0 0.1
2018-Feb-16 17:30N 35°33' E 140°02'0 0.0
2018-Feb-16 17:00N 35°33' E 140°02'0 0.0
2018-Feb-16 16:24N 35°33' E 140°02'0 0.0
2018-Feb-16 16:00N 35°33' E 140°02'0 0.0
2018-Feb-16 15:30N 35°33' E 140°02'0 0.0
2018-Feb-16 15:00N 35°33' E 140°02'0 0.0
2018-Feb-16 14:30N 35°33' E 140°02'0 0.1
2018-Feb-16 14:00N 35°33' E 140°02'0 0.0
2018-Feb-16 13:30N 35°33' E 140°02'0 0.0
2018-Feb-16 13:00N 35°33' E 140°02'0 0.0
2018-Feb-16 12:30N 35°33' E 140°02'0 0.0
2018-Feb-16 12:00N 35°33' E 140°02'0 0.0
2018-Feb-16 11:24N 35°33' E 140°02'0 0.0
2018-Feb-16 11:00N 35°33' E 140°02'0 0.0
2018-Feb-16 10:30N 35°33' E 140°02'0 0.0
2018-Feb-16 10:00N 35°33' E 140°02'0 0.0
2018-Feb-16 09:30N 35°33' E 140°02'0 0.0
2018-Feb-16 09:00N 35°33' E 140°02'0 0.0
2018-Feb-16 08:30N 35°33' E 140°02'0 0.0
2018-Feb-16 08:00N 35°33' E 140°02'0 0.0
2018-Feb-16 07:30N 35°33' E 140°02'0 0.0
2018-Feb-16 07:00N 35°33' E 140°02'0 0.0
2018-Feb-16 06:30N 35°33' E 140°02'0 0.0
2018-Feb-16 06:00N 35°33' E 140°02'0 0.0
2018-Feb-16 05:30N 35°33' E 140°02'0 0.1
2018-Feb-16 04:54N 35°33' E 140°02'0 0.1
2018-Feb-16 04:30N 35°33' E 140°02'0 0.0
2018-Feb-16 04:00N 35°33' E 140°02'0 0.0
2018-Feb-16 03:30N 35°33' E 140°02'0 0.0
2018-Feb-16 03:00N 35°33' E 140°02'0 0.0
2018-Feb-16 02:30N 35°33' E 140°02'0 0.0
2018-Feb-16 02:00N 35°33' E 140°02'0 0.1
2018-Feb-16 01:30N 35°33' E 140°02'0 0.0
2018-Feb-16 01:00N 35°33' E 140°02'0 0.0
2018-Feb-16 00:30N 35°33' E 140°02'0 0.0
2018-Feb-16 00:00N 35°33' E 140°02'0 0.0
2018-Feb-15 23:18N 35°33' E 140°02'0 0.2
2018-Feb-15 23:00N 35°33' E 140°02'0 0.1
2018-Feb-15 22:30N 35°33' E 140°02'0 0.1
2018-Feb-15 22:00N 35°33' E 140°02'0 0.0
2018-Feb-15 21:30N 35°33' E 140°02'0 0.1
2018-Feb-15 21:00N 35°33' E 140°02'0 0.1
2018-Feb-15 20:30N 35°33' E 140°02'1 2.7
2018-Feb-15 20:00N 35°33' E 140°00'510.2
2018-Feb-15 19:30N 35°30' E 139°55'510.9
2018-Feb-15 19:00N 35°27' E 139°50'510.8
2018-Feb-15 18:30N 35°23' E 139°46'510.7
2018-Feb-15 18:00N 35°17' E 139°45'611.0
2018-Feb-15 17:30N 35°12' E 139°47'611.0
2018-Feb-15 17:00N 35°07' E 139°45'510.6
2018-Feb-15 16:30N 35°03' E 139°40'510.8
2018-Feb-15 16:00N 34°60' E 139°35'611.6
2018-Feb-15 15:29N 34°56' E 139°30'612.7
2018-Feb-15 15:00N 34°52' E 139°24'713.0
2018-Feb-15 14:26N 34°47' E 139°17'613.0
2018-Feb-15 14:00N 34°43' E 139°12'612.8
2018-Feb-15 13:30N 34°39' E 139°07'712.6
2018-Feb-15 12:57N 34°34' E 139°00'613.5
2018-Feb-15 12:30N 34°33' E 138°53'712.4
2018-Feb-15 11:58N 34°32' E 138°45'611.9
2018-Feb-15 11:30N 34°32' E 138°39'611.4
2018-Feb-15 10:57N 34°31' E 138°31'611.6
2018-Feb-15 10:24N 34°31' E 138°23'512.2
2018-Feb-15 09:59N 34°31' E 138°17'1512.0
2018-Feb-15 08:42N 34°27' E 137°59'147 9.9
2018-Feb-14 17:52N 33°43' E 135°10'511.0
2018-Feb-14 17:26N 33°47' E 135°06'511.5
2018-Feb-14 17:01N 33°50' E 135°02'611.1
2018-Feb-14 16:30N 33°56' E 134°60'611.7
2018-Feb-14 16:00N 34°01' E 134°59'611.7
2018-Feb-14 15:30N 34°07' E 134°59'611.9
2018-Feb-14 15:01N 34°13' E 134°58'612.3
2018-Feb-14 14:31N 34°19' E 134°59'611.3
2018-Feb-14 14:00N 34°24' E 135°03'611.2
2018-Feb-14 13:31N 34°27' E 135°09'611.1
2018-Feb-14 13:00N 34°31' E 135°14'611.3
2018-Feb-14 12:31N 34°34' E 135°19'5 9.5
2018-Feb-14 12:00N 34°36' E 135°24'2 3.6
2018-Feb-14 11:30N 34°35' E 135°26'0 0.0
2018-Feb-14 10:59N 34°35' E 135°26'0 0.0
2018-Feb-14 10:29N 34°35' E 135°26'0 0.0
2018-Feb-14 09:59N 34°35' E 135°26'0 0.0
2018-Feb-14 09:29N 34°35' E 135°26'0 0.0
2018-Feb-14 08:59N 34°35' E 135°26'0 0.0
2018-Feb-14 08:29N 34°35' E 135°26'0 0.0
2018-Feb-14 07:59N 34°35' E 135°26'0 0.0
2018-Feb-14 07:29N 34°35' E 135°26'0 0.0
2018-Feb-14 06:59N 34°35' E 135°26'0 0.0
2018-Feb-14 06:29N 34°35' E 135°26'0 0.0
2018-Feb-14 05:59N 34°35' E 135°26'0 0.0
2018-Feb-14 05:29N 34°35' E 135°26'0 0.0
2018-Feb-14 04:59N 34°35' E 135°26'0 0.0
2018-Feb-14 04:29N 34°35' E 135°26'0 0.0
2018-Feb-14 03:59N 34°35' E 135°26'0 0.0
2018-Feb-14 03:29N 34°35' E 135°26'0 0.0
2018-Feb-14 02:59N 34°35' E 135°26'0 0.0
2018-Feb-14 02:29N 34°35' E 135°26'0 0.0
2018-Feb-14 01:59N 34°35' E 135°26'0 0.0
2018-Feb-14 01:29N 34°35' E 135°26'0 0.1
2018-Feb-14 01:01N 34°35' E 135°26'2 4.3
2018-Feb-14 00:30N 34°36' E 135°24'4 7.5
2018-Feb-14 00:01N 34°35' E 135°20'611.8
2018-Feb-13 23:30N 34°31' E 135°15'612.3
2018-Feb-13 23:01N 34°26' E 135°10'612.7
2018-Feb-13 22:30N 34°22' E 135°04'612.7
2018-Feb-13 22:00N 34°17' E 134°59'612.6
2018-Feb-13 21:30N 34°11' E 135°00'612.2
2018-Feb-13 21:00N 34°05' E 134°60'612.1
2018-Feb-13 20:31N 33°59' E 134°60'611.9
2018-Feb-13 20:00N 33°53' E 135°00'108 8.5
2018-Feb-13 07:20N 34°31' E 137°02'611.6
2018-Feb-13 06:51N 34°35' E 136°58'411.8
2018-Feb-13 06:31N 34°38' E 136°54'611.7
2018-Feb-13 06:00N 34°42' E 136°49'612.2
2018-Feb-13 05:31N 34°47' E 136°46'612.1
2018-Feb-13 05:01N 34°53' E 136°43'510.6
2018-Feb-13 04:30N 34°57' E 136°39'1 1.0
2018-Feb-13 03:57N 34°58' E 136°39'0 0.0
2018-Feb-13 03:27N 34°58' E 136°39'0 0.0
2018-Feb-13 00:27N 34°58' E 136°39'0 0.1
2018-Feb-12 23:33N 34°58' E 136°39'0 1.5
2018-Feb-12 23:31N 34°58' E 136°39'2 3.6
2018-Feb-12 23:00N 34°57' E 136°41'1 1.2
2018-Feb-12 22:29N 34°58' E 136°42'0 0.0
2018-Feb-12 21:59N 34°58' E 136°42'0 0.0
2018-Feb-12 21:29N 34°58' E 136°42'0 0.1
2018-Feb-12 20:59N 34°58' E 136°42'0 0.0
2018-Feb-12 20:29N 34°58' E 136°42'0 0.0
2018-Feb-12 19:59N 34°58' E 136°42'0 0.1
2018-Feb-12 19:29N 34°58' E 136°42'0 0.0
2018-Feb-12 18:59N 34°58' E 136°42'0 0.0
2018-Feb-12 18:29N 34°58' E 136°42'0 0.0
2018-Feb-12 17:59N 34°58' E 136°42'0 0.0
2018-Feb-12 17:29N 34°58' E 136°42'0 0.0
2018-Feb-12 16:59N 34°58' E 136°42'0 0.0
2018-Feb-12 16:29N 34°58' E 136°42'0 0.0
2018-Feb-12 15:59N 34°58' E 136°42'0 0.0
2018-Feb-12 15:17N 34°58' E 136°42'0 0.0
2018-Feb-12 14:59N 34°58' E 136°42'0 0.0
2018-Feb-12 14:29N 34°58' E 136°42'0 0.0
2018-Feb-12 13:59N 34°58' E 136°42'0 0.0
2018-Feb-12 13:29N 34°58' E 136°42'0 0.0
2018-Feb-12 12:59N 34°58' E 136°42'0 0.1
2018-Feb-12 12:29N 34°58' E 136°42'0 0.2
2018-Feb-12 11:59N 34°58' E 136°41'0 0.1
2018-Feb-12 11:29N 34°58' E 136°42'1 1.3
2018-Feb-12 11:00N 34°57' E 136°42'4 8.5
2018-Feb-12 10:30N 34°53' E 136°43'510.5
2018-Feb-12 10:00N 34°48' E 136°45'5 9.7
2018-Feb-12 09:30N 34°44' E 136°49'57 8.7
2018-Feb-12 02:59N 34°32' E 137°56'6 7.9
2018-Feb-12 02:14N 34°32' E 138°03'2 7.7
2018-Feb-12 01:58N 34°32' E 138°06'4 7.5
2018-Feb-12 01:27N 34°32' E 138°11'4 7.8
2018-Feb-12 00:59N 34°32' E 138°15'8 7.6
2018-Feb-11 23:56N 34°33' E 138°25'5 7.7
2018-Feb-11 23:16N 34°33' E 138°31'2 7.5
2018-Feb-11 22:59N 34°33' E 138°34'6 7.6
2018-Feb-11 22:15N 34°33' E 138°40'4 7.3
2018-Feb-11 21:44N 34°33' E 138°45'4 7.0
2018-Feb-11 21:08N 34°33' E 138°50'1 6.1
2018-Feb-11 20:59N 34°33' E 138°51'3 6.3
2018-Feb-11 20:29N 34°33' E 138°55'3 5.6
2018-Feb-11 19:59N 34°33' E 138°58'3 6.3
2018-Feb-11 19:27N 34°36' E 139°01'4 7.1
2018-Feb-11 18:55N 34°38' E 139°04'3 6.7
2018-Feb-11 18:25N 34°41' E 139°07'6 7.1
2018-Feb-11 17:34N 34°45' E 139°13'2 7.7
2018-Feb-11 17:22N 34°46' E 139°14'17 8.1
2018-Feb-11 15:14N 34°58' E 139°29'2 9.3
2018-Feb-11 14:58N 34°59' E 139°31'5 9.9
2018-Feb-11 14:30N 35°02' E 139°36'610.6
2018-Feb-11 13:59N 35°06' E 139°41'510.8
2018-Feb-11 13:30N 35°10' E 139°45'611.1
2018-Feb-11 13:00N 35°15' E 139°46'611.1
2018-Feb-11 12:30N 35°20' E 139°42'510.4
2018-Feb-11 12:00N 35°25' E 139°44'611.5
2018-Feb-11 11:31N 35°28' E 139°50'611.3
2018-Feb-11 11:00N 35°31' E 139°56'510.6
2018-Feb-11 10:30N 35°32' E 140°02'1 1.9
2018-Feb-11 10:00N 35°32' E 140°03'0 0.0
2018-Feb-10 23:52N 35°32' E 140°03'1 2.4
2018-Feb-10 23:31N 35°32' E 140°02'1 1.1
2018-Feb-10 22:56N 35°33' E 140°02'0 0.0
2018-Feb-10 22:26N 35°33' E 140°02'0 0.0
2018-Feb-10 21:44N 35°33' E 140°02'0 0.0
2018-Feb-10 21:29N 35°33' E 140°02'0 0.0
2018-Feb-10 20:56N 35°33' E 140°02'0 0.0
2018-Feb-10 20:26N 35°33' E 140°02'0 0.0
2018-Feb-10 19:59N 35°33' E 140°02'0 0.0
2018-Feb-10 19:20N 35°33' E 140°02'0 0.0
2018-Feb-10 18:59N 35°33' E 140°02'  
Track history (hours):
 
Tides and Currents Weather Stations Pressure Air Temp Water Temp Dewpoint Dewpoint Depression Visibility Wind Speed Wind Dir Waves Ship Positions

Miyamaru No.3

Last reported at 2018-Feb-20 18:29 UTC. Time now 2018-Feb-20 19:45 UTC.
Position N 34°57' E 139°28'.

Length 105 m; draft 6.8 m.

Type: Tanker. MMSI: 431036000.

Date/timePositionNaut miles runAvg speedWind from/ knotsBaromVisibWave heightAir tempDewpointWater temp
2018-Feb-20 18:29N 34°57' E 139°28'611.3
2018-Feb-20 17:58N 35°01' E 139°34'511.2
2018-Feb-20 17:30N 35°04' E 139°39'611.7
2018-Feb-20 17:00N 35°08' E 139°44'611.9
2018-Feb-20 16:30N 35°14' E 139°46'611.6
2018-Feb-20 16:00N 35°19' E 139°43'611.0
2018-Feb-20 15:30N 35°25' E 139°43'611.3
2018-Feb-20 15:00N 35°28' E 139°49'611.3
2018-Feb-20 14:30N 35°31' E 139°55'611.1
2018-Feb-20 14:00N 35°32' E 140°01'2 3.3
2018-Feb-20 13:30N 35°32' E 140°03'0 0.0
2018-Feb-20 13:00N 35°32' E 140°03'0 0.0
2018-Feb-20 12:30N 35°32' E 140°03'0 0.0
2018-Feb-20 12:00N 35°32' E 140°03'0 0.0
2018-Feb-20 11:30N 35°32' E 140°03'0 0.0
2018-Feb-20 11:00N 35°32' E 140°03'0 0.0
2018-Feb-20 10:30N 35°32' E 140°03'0 0.0
2018-Feb-20 10:00N 35°32' E 140°03'0 0.0
2018-Feb-20 09:30N 35°32' E 140°03'0 0.0
2018-Feb-20 09:00N 35°32' E 140°03'0 0.0
2018-Feb-20 08:30N 35°32' E 140°03'0 0.0
2018-Feb-20 08:00N 35°32' E 140°03'0 0.7
2018-Feb-20 07:30N 35°32' E 140°03'4 7.9
2018-Feb-20 07:00N 35°32' E 139°58'611.6
2018-Feb-20 06:30N 35°29' E 139°52'612.1
2018-Feb-20 06:00N 35°25' E 139°47'612.0
2018-Feb-20 05:30N 35°19' E 139°44'611.2
2018-Feb-20 05:00N 35°14' E 139°47'611.3
2018-Feb-20 04:30N 35°08' E 139°46'611.2
2018-Feb-20 04:00N 35°04' E 139°42'611.2
2018-Feb-20 03:30N 35°00' E 139°37'611.5
2018-Feb-20 02:59N 34°57' E 139°31'611.6
2018-Feb-20 02:29N 34°53' E 139°25'611.3
2018-Feb-20 01:58N 34°49' E 139°20'611.8
2018-Feb-20 01:28N 34°45' E 139°14'611.9
2018-Feb-20 00:57N 34°41' E 139°09'510.5
2018-Feb-20 00:29N 34°38' E 139°04'510.1
2018-Feb-19 23:58N 34°34' E 138°60'4 9.4
2018-Feb-19 23:29N 34°33' E 138°54'610.9
2018-Feb-19 22:58N 34°33' E 138°48'511.7
2018-Feb-19 22:30N 34°33' E 138°41'611.8
2018-Feb-19 22:00N 34°33' E 138°34'712.1
2018-Feb-19 21:25N 34°32' E 138°25'712.3
2018-Feb-19 20:52N 34°32' E 138°17'712.7
2018-Feb-19 20:18N 34°32' E 138°08'3712.4
2018-Feb-19 17:21N 34°32' E 137°24'512.5
2018-Feb-19 16:58N 34°32' E 137°18'1312.5
2018-Feb-19 15:54N 34°32' E 137°02'813.1
2018-Feb-19 15:19N 34°37' E 136°55'412.8
2018-Feb-19 15:00N 34°40' E 136°51'712.7
2018-Feb-19 14:29N 34°45' E 136°47'612.6
2018-Feb-19 14:00N 34°51' E 136°44'612.3
2018-Feb-19 13:30N 34°56' E 136°41'2 4.8
2018-Feb-19 13:00N 34°58' E 136°39'0 0.0
2018-Feb-19 12:30N 34°58' E 136°39'0 0.0
2018-Feb-19 11:59N 34°58' E 136°39'0 0.0
2018-Feb-19 11:23N 34°58' E 136°39'0 0.0
2018-Feb-19 10:59N 34°58' E 136°39'0 0.0
2018-Feb-19 10:29N 34°58' E 136°39'0 0.0
2018-Feb-19 09:59N 34°58' E 136°39'0 0.0
2018-Feb-19 09:29N 34°58' E 136°39'0 0.0
2018-Feb-19 08:59N 34°58' E 136°39'0 0.0
2018-Feb-19 08:23N 34°58' E 136°39'0 0.2
2018-Feb-19 07:59N 34°58' E 136°39'2 3.5
2018-Feb-19 07:30N 34°57' E 136°40'510.4
2018-Feb-19 07:00N 34°52' E 136°42'611.4
2018-Feb-19 06:30N 34°47' E 136°45'611.2
2018-Feb-19 06:00N 34°42' E 136°50'6210.2
2018-Feb-18 23:58N 34°32' E 138°03'6 9.9
2018-Feb-18 23:21N 34°32' E 138°11'4 9.6
2018-Feb-18 22:59N 34°32' E 138°15'510.5
2018-Feb-18 22:30N 34°32' E 138°21'1011.0
2018-Feb-18 21:36N 34°32' E 138°33'110.6
2018-Feb-18 21:28N 34°33' E 138°35'1310.7
2018-Feb-18 20:14N 34°33' E 138°51'210.9
2018-Feb-18 20:00N 34°33' E 138°54'710.4
2018-Feb-18 19:22N 34°36' E 139°01'411.8
2018-Feb-18 19:00N 34°39' E 139°05'811.0
2018-Feb-18 18:16N 34°45' E 139°12'310.0
2018-Feb-18 17:56N 34°47' E 139°15'6 9.8
2018-Feb-18 17:22N 34°51' E 139°20'10 9.8
2018-Feb-18 16:22N 34°57' E 139°28'410.4
2018-Feb-18 15:58N 34°60' E 139°32'510.6
2018-Feb-18 15:30N 35°03' E 139°37'611.4
2018-Feb-18 14:58N 35°07' E 139°43'611.7
2018-Feb-18 14:29N 35°12' E 139°46'511.4
2018-Feb-18 14:01N 35°17' E 139°45'611.6
2018-Feb-18 13:31N 35°23' E 139°42'611.2
2018-Feb-18 13:01N 35°27' E 139°47'611.8
2018-Feb-18 12:30N 35°30' E 139°53'611.3
2018-Feb-18 12:00N 35°32' E 139°60'3 6.2
2018-Feb-18 11:30N 35°32' E 140°03'0 0.2
2018-Feb-18 11:00N 35°32' E 140°03'0 0.0
2018-Feb-18 01:48N 35°32' E 140°03'0 0.7
2018-Feb-18 01:31N 35°32' E 140°03'1 2.9
2018-Feb-18 01:00N 35°33' E 140°02'0 0.2
2018-Feb-18 00:27N 35°33' E 140°02'0 0.0
2018-Feb-17 23:57N 35°33' E 140°02'0 0.0
2018-Feb-17 23:27N 35°33' E 140°02'0 0.0
2018-Feb-17 22:57N 35°33' E 140°02'0 0.0
2018-Feb-17 22:27N 35°33' E 140°02'0 0.0
2018-Feb-17 21:57N 35°33' E 140°02'0 0.0
2018-Feb-17 21:27N 35°33' E 140°02'0 0.0
2018-Feb-17 20:57N 35°33' E 140°02'0 0.0
2018-Feb-17 20:27N 35°33' E 140°02'0 0.0
2018-Feb-17 19:51N 35°33' E 140°02'0 0.0
2018-Feb-17 19:27N 35°33' E 140°02'0 0.0
2018-Feb-17 18:57N 35°33' E 140°02'0 0.0
2018-Feb-17 18:27N 35°33' E 140°02'0 0.0
2018-Feb-17 18:00N 35°33' E 140°02'0 0.0
2018-Feb-17 17:30N 35°33' E 140°02'0 0.0
2018-Feb-17 16:57N 35°33' E 140°02'0 0.0
2018-Feb-17 16:27N 35°33' E 140°02'0 0.0
2018-Feb-17 15:57N 35°33' E 140°02'0 0.0
2018-Feb-17 15:27N 35°33' E 140°02'0 0.0
2018-Feb-17 14:57N 35°33' E 140°02'0 0.0
2018-Feb-17 14:27N 35°33' E 140°02'0 0.0
2018-Feb-17 13:57N 35°33' E 140°02'0 0.0
2018-Feb-17 13:30N 35°33' E 140°02'0 0.0
2018-Feb-17 13:00N 35°33' E 140°02'0 0.0
2018-Feb-17 12:21N 35°33' E 140°02'0 0.0
2018-Feb-17 11:51N 35°33' E 140°02'0 0.0
2018-Feb-17 11:27N 35°33' E 140°02'0 0.0
2018-Feb-17 10:57N 35°33' E 140°02'0 0.0
2018-Feb-17 10:30N 35°33' E 140°02'0 0.0
2018-Feb-17 09:57N 35°33' E 140°02'0 0.0
2018-Feb-17 09:27N 35°33' E 140°02'0 0.0
2018-Feb-17 08:57N 35°33' E 140°02'0 0.0
2018-Feb-17 08:30N 35°33' E 140°02'0 0.0
2018-Feb-17 07:57N 35°33' E 140°02'0 0.1
2018-Feb-17 07:27N 35°33' E 140°02'1 3.0
2018-Feb-17 07:00N 35°32' E 140°03'0 0.3
2018-Feb-17 06:30N 35°32' E 140°03'0 0.0
2018-Feb-17 05:59N 35°32' E 140°03'0 0.9
2018-Feb-17 05:30N 35°32' E 140°03'1 2.6
2018-Feb-17 05:00N 35°33' E 140°02'2 4.5
2018-Feb-17 04:31N 35°33' E 140°05'0 0.1
2018-Feb-17 03:58N 35°33' E 140°05'0 0.0
2018-Feb-17 03:29N 35°33' E 140°05'0 0.0
2018-Feb-17 03:00N 35°33' E 140°05'0 0.0
2018-Feb-17 02:30N 35°33' E 140°05'0 0.0
2018-Feb-17 02:01N 35°33' E 140°05'0 0.0
2018-Feb-17 01:30N 35°33' E 140°05'0 0.0
2018-Feb-17 01:00N 35°33' E 140°05'0 0.0
2018-Feb-17 00:30N 35°33' E 140°05'0 0.5
2018-Feb-17 00:00N 35°33' E 140°05'2 4.5
2018-Feb-16 23:30N 35°34' E 140°02'0 0.6
2018-Feb-16 23:00N 35°33' E 140°02'0 0.0
2018-Feb-16 22:30N 35°33' E 140°02'0 0.0
2018-Feb-16 22:00N 35°33' E 140°02'0 0.0
2018-Feb-16 21:30N 35°33' E 140°02'0 0.0
2018-Feb-16 21:00N 35°33' E 140°02'0 0.0
2018-Feb-16 20:18N 35°33' E 140°02'0 0.2
2018-Feb-16 20:00N 35°33' E 140°02'0 0.0
2018-Feb-16 19:30N 35°33' E 140°02'0 0.0
2018-Feb-16 19:00N 35°33' E 140°02'0 0.0
2018-Feb-16 18:30N 35°33' E 140°02'0 0.0
2018-Feb-16 18:00N 35°33' E 140°02'0 0.1
2018-Feb-16 17:30N 35°33' E 140°02'0 0.0
2018-Feb-16 17:00N 35°33' E 140°02'0 0.0
2018-Feb-16 16:24N 35°33' E 140°02'0 0.0
2018-Feb-16 16:00N 35°33' E 140°02'0 0.0
2018-Feb-16 15:30N 35°33' E 140°02'0 0.0
2018-Feb-16 15:00N 35°33' E 140°02'0 0.0
2018-Feb-16 14:30N 35°33' E 140°02'0 0.1
2018-Feb-16 14:00N 35°33' E 140°02'0 0.0
2018-Feb-16 13:30N 35°33' E 140°02'0 0.0
2018-Feb-16 13:00N 35°33' E 140°02'0 0.0
2018-Feb-16 12:30N 35°33' E 140°02'0 0.0
2018-Feb-16 12:00N 35°33' E 140°02'0 0.0
2018-Feb-16 11:24N 35°33' E 140°02'0 0.0
2018-Feb-16 11:00N 35°33' E 140°02'0 0.0
2018-Feb-16 10:30N 35°33' E 140°02'0 0.0
2018-Feb-16 10:00N 35°33' E 140°02'0 0.0
2018-Feb-16 09:30N 35°33' E 140°02'0 0.0
2018-Feb-16 09:00N 35°33' E 140°02'0 0.0
2018-Feb-16 08:30N 35°33' E 140°02'0 0.0
2018-Feb-16 08:00N 35°33' E 140°02'0 0.0
2018-Feb-16 07:30N 35°33' E 140°02'0 0.0
2018-Feb-16 07:00N 35°33' E 140°02'0 0.0
2018-Feb-16 06:30N 35°33' E 140°02'0 0.0
2018-Feb-16 06:00N 35°33' E 140°02'0 0.0
2018-Feb-16 05:30N 35°33' E 140°02'0 0.1
2018-Feb-16 04:54N 35°33' E 140°02'0 0.1
2018-Feb-16 04:30N 35°33' E 140°02'0 0.0
2018-Feb-16 04:00N 35°33' E 140°02'0 0.0
2018-Feb-16 03:30N 35°33' E 140°02'0 0.0
2018-Feb-16 03:00N 35°33' E 140°02'0 0.0
2018-Feb-16 02:30N 35°33' E 140°02'0 0.0
2018-Feb-16 02:00N 35°33' E 140°02'0 0.1
2018-Feb-16 01:30N 35°33' E 140°02'0 0.0
2018-Feb-16 01:00N 35°33' E 140°02'0 0.0
2018-Feb-16 00:30N 35°33' E 140°02'0 0.0
2018-Feb-16 00:00N 35°33' E 140°02'0 0.0
2018-Feb-15 23:18N 35°33' E 140°02'0 0.2
2018-Feb-15 23:00N 35°33' E 140°02'0 0.1
2018-Feb-15 22:30N 35°33' E 140°02'0 0.1
2018-Feb-15 22:00N 35°33' E 140°02'0 0.0
2018-Feb-15 21:30N 35°33' E 140°02'0 0.1
2018-Feb-15 21:00N 35°33' E 140°02'0 0.1
2018-Feb-15 20:30N 35°33' E 140°02'1 2.7
2018-Feb-15 20:00N 35°33' E 140°00'510.2
2018-Feb-15 19:30N 35°30' E 139°55'510.9
2018-Feb-15 19:00N 35°27' E 139°50'510.8
2018-Feb-15 18:30N 35°23' E 139°46'510.7
2018-Feb-15 18:00N 35°17' E 139°45'611.0
2018-Feb-15 17:30N 35°12' E 139°47'611.0
2018-Feb-15 17:00N 35°07' E 139°45'510.6
2018-Feb-15 16:30N 35°03' E 139°40'510.8
2018-Feb-15 16:00N 34°60' E 139°35'611.6
2018-Feb-15 15:29N 34°56' E 139°30'612.7
2018-Feb-15 15:00N 34°52' E 139°24'713.0
2018-Feb-15 14:26N 34°47' E 139°17'613.0
2018-Feb-15 14:00N 34°43' E 139°12'612.8
2018-Feb-15 13:30N 34°39' E 139°07'712.6
2018-Feb-15 12:57N 34°34' E 139°00'613.5
2018-Feb-15 12:30N 34°33' E 138°53'712.4
2018-Feb-15 11:58N 34°32' E 138°45'611.9
2018-Feb-15 11:30N 34°32' E 138°39'611.4
2018-Feb-15 10:57N 34°31' E 138°31'611.6
2018-Feb-15 10:24N 34°31' E 138°23'512.2
2018-Feb-15 09:59N 34°31' E 138°17'1512.0
2018-Feb-15 08:42N 34°27' E 137°59'147 9.9
2018-Feb-14 17:52N 33°43' E 135°10'511.0
2018-Feb-14 17:26N 33°47' E 135°06'511.5
2018-Feb-14 17:01N 33°50' E 135°02'611.1
2018-Feb-14 16:30N 33°56' E 134°60'611.7
2018-Feb-14 16:00N 34°01' E 134°59'611.7
2018-Feb-14 15:30N 34°07' E 134°59'611.9
2018-Feb-14 15:01N 34°13' E 134°58'612.3
2018-Feb-14 14:31N 34°19' E 134°59'611.3
2018-Feb-14 14:00N 34°24' E 135°03'611.2
2018-Feb-14 13:31N 34°27' E 135°09'611.1
2018-Feb-14 13:00N 34°31' E 135°14'611.3
2018-Feb-14 12:31N 34°34' E 135°19'5 9.5
2018-Feb-14 12:00N 34°36' E 135°24'2 3.6
2018-Feb-14 11:30N 34°35' E 135°26'0 0.0
2018-Feb-14 10:59N 34°35' E 135°26'0 0.0
2018-Feb-14 10:29N 34°35' E 135°26'0 0.0
2018-Feb-14 09:59N 34°35' E 135°26'0 0.0
2018-Feb-14 09:29N 34°35' E 135°26'0 0.0
2018-Feb-14 08:59N 34°35' E 135°26'0 0.0
2018-Feb-14 08:29N 34°35' E 135°26'0 0.0
2018-Feb-14 07:59N 34°35' E 135°26'0 0.0
2018-Feb-14 07:29N 34°35' E 135°26'0 0.0
2018-Feb-14 06:59N 34°35' E 135°26'0 0.0
2018-Feb-14 06:29N 34°35' E 135°26'0 0.0
2018-Feb-14 05:59N 34°35' E 135°26'0 0.0
2018-Feb-14 05:29N 34°35' E 135°26'0 0.0
2018-Feb-14 04:59N 34°35' E 135°26'0 0.0
2018-Feb-14 04:29N 34°35' E 135°26'0 0.0
2018-Feb-14 03:59N 34°35' E 135°26'0 0.0
2018-Feb-14 03:29N 34°35' E 135°26'0 0.0
2018-Feb-14 02:59N 34°35' E 135°26'0 0.0
2018-Feb-14 02:29N 34°35' E 135°26'0 0.0
2018-Feb-14 01:59N 34°35' E 135°26'0 0.0
2018-Feb-14 01:29N 34°35' E 135°26'0 0.1
2018-Feb-14 01:01N 34°35' E 135°26'2 4.3
2018-Feb-14 00:30N 34°36' E 135°24'4 7.5
2018-Feb-14 00:01N 34°35' E 135°20'611.8
2018-Feb-13 23:30N 34°31' E 135°15'612.3
2018-Feb-13 23:01N 34°26' E 135°10'612.7
2018-Feb-13 22:30N 34°22' E 135°04'612.7
2018-Feb-13 22:00N 34°17' E 134°59'612.6
2018-Feb-13 21:30N 34°11' E 135°00'612.2
2018-Feb-13 21:00N 34°05' E 134°60'612.1
2018-Feb-13 20:31N 33°59' E 134°60'611.9
2018-Feb-13 20:00N 33°53' E 135°00'108 8.5
2018-Feb-13 07:20N 34°31' E 137°02'611.6
2018-Feb-13 06:51N 34°35' E 136°58'411.8
2018-Feb-13 06:31N 34°38' E 136°54'611.7
2018-Feb-13 06:00N 34°42' E 136°49'612.2
2018-Feb-13 05:31N 34°47' E 136°46'612.1
2018-Feb-13 05:01N 34°53' E 136°43'510.6
2018-Feb-13 04:30N 34°57' E 136°39'1 1.0
2018-Feb-13 03:57N 34°58' E 136°39'0 0.0
2018-Feb-13 03:27N 34°58' E 136°39'0 0.0
2018-Feb-13 00:27N 34°58' E 136°39'0 0.1
2018-Feb-12 23:33N 34°58' E 136°39'0 1.5
2018-Feb-12 23:31N 34°58' E 136°39'2 3.6
2018-Feb-12 23:00N 34°57' E 136°41'1 1.2
2018-Feb-12 22:29N 34°58' E 136°42'0 0.0
2018-Feb-12 21:59N 34°58' E 136°42'0 0.0
2018-Feb-12 21:29N 34°58' E 136°42'0 0.1
2018-Feb-12 20:59N 34°58' E 136°42'0 0.0
2018-Feb-12 20:29N 34°58' E 136°42'0 0.0
2018-Feb-12 19:59N 34°58' E 136°42'0 0.1
2018-Feb-12 19:29N 34°58' E 136°42'0 0.0
2018-Feb-12 18:59N 34°58' E 136°42'0 0.0
2018-Feb-12 18:29N 34°58' E 136°42'0 0.0
2018-Feb-12 17:59N 34°58' E 136°42'0 0.0
2018-Feb-12 17:29N 34°58' E 136°42'0 0.0
2018-Feb-12 16:59N 34°58' E 136°42'0 0.0
2018-Feb-12 16:29N 34°58' E 136°42'0 0.0
2018-Feb-12 15:59N 34°58' E 136°42'0 0.0
2018-Feb-12 15:17N 34°58' E 136°42'0 0.0
2018-Feb-12 14:59N 34°58' E 136°42'0 0.0
2018-Feb-12 14:29N 34°58' E 136°42'0 0.0
2018-Feb-12 13:59N 34°58' E 136°42'0 0.0
2018-Feb-12 13:29N 34°58' E 136°42'0 0.0
2018-Feb-12 12:59N 34°58' E 136°42'0 0.1
2018-Feb-12 12:29N 34°58' E 136°42'0 0.2
2018-Feb-12 11:59N 34°58' E 136°41'0 0.1
2018-Feb-12 11:29N 34°58' E 136°42'1 1.3
2018-Feb-12 11:00N 34°57' E 136°42'4 8.5
2018-Feb-12 10:30N 34°53' E 136°43'510.5
2018-Feb-12 10:00N 34°48' E 136°45'5 9.7
2018-Feb-12 09:30N 34°44' E 136°49'57 8.7
2018-Feb-12 02:59N 34°32' E 137°56'6 7.9
2018-Feb-12 02:14N 34°32' E 138°03'2 7.7
2018-Feb-12 01:58N 34°32' E 138°06'4 7.5
2018-Feb-12 01:27N 34°32' E 138°11'4 7.8
2018-Feb-12 00:59N 34°32' E 138°15'8 7.6
2018-Feb-11 23:56N 34°33' E 138°25'5 7.7
2018-Feb-11 23:16N 34°33' E 138°31'2 7.5
2018-Feb-11 22:59N 34°33' E 138°34'6 7.6
2018-Feb-11 22:15N 34°33' E 138°40'4 7.3
2018-Feb-11 21:44N 34°33' E 138°45'4 7.0
2018-Feb-11 21:08N 34°33' E 138°50'1 6.1
2018-Feb-11 20:59N 34°33' E 138°51'3 6.3
2018-Feb-11 20:29N 34°33' E 138°55'3 5.6
2018-Feb-11 19:59N 34°33' E 138°58'3 6.3
2018-Feb-11 19:27N 34°36' E 139°01'4 7.1
2018-Feb-11 18:55N 34°38' E 139°04'3 6.7
2018-Feb-11 18:25N 34°41' E 139°07'6 7.1
2018-Feb-11 17:34N 34°45' E 139°13'2 7.7
2018-Feb-11 17:22N 34°46' E 139°14'17 8.1
2018-Feb-11 15:14N 34°58' E 139°29'2 9.3
2018-Feb-11 14:58N 34°59' E 139°31'5 9.9
2018-Feb-11 14:30N 35°02' E 139°36'610.6
2018-Feb-11 13:59N 35°06' E 139°41'510.8
2018-Feb-11 13:30N 35°10' E 139°45'611.1
2018-Feb-11 13:00N 35°15' E 139°46'611.1
2018-Feb-11 12:30N 35°20' E 139°42'510.4
2018-Feb-11 12:00N 35°25' E 139°44'611.5
2018-Feb-11 11:31N 35°28' E 139°50'611.3
2018-Feb-11 11:00N 35°31' E 139°56'510.6
2018-Feb-11 10:30N 35°32' E 140°02'1 1.9
2018-Feb-11 10:00N 35°32' E 140°03'0 0.0
2018-Feb-10 23:52N 35°32' E 140°03'1 2.4
2018-Feb-10 23:31N 35°32' E 140°02'1 1.1
2018-Feb-10 22:56N 35°33' E 140°02'0 0.0
2018-Feb-10 22:26N 35°33' E 140°02'0 0.0
2018-Feb-10 21:44N 35°33' E 140°02'0 0.0
2018-Feb-10 21:29N 35°33' E 140°02'0 0.0
2018-Feb-10 20:56N 35°33' E 140°02'0 0.0
2018-Feb-10 20:26N 35°33' E 140°02'0 0.0
2018-Feb-10 19:59N 35°33' E 140°02'0 0.0
2018-Feb-10 19:20N 35°33' E 140°02'0 0.0
2018-Feb-10 18:59N 35°33' E 140°02'  

Dump ship's entire track history